Time;durP1;ratioP1;P1;durP2;ratioP2;P2;SDS_P1;SDS_P2;PMS_P1;PMS_P2;Temp;Humidity;BMP_temperature;BMP_pressure;BME280_temperature;BME280_humidity;BME280_pressure;Samples;Min_cycle;Max_cycle;Signal;HPM_P1;HPM_P2
2024/03/24 00:02:15;;;;;;;;;;;5.80;1.00;;;;;;5067694;28;20007;-83
2024/03/24 00:04:40;;;;;;;;;;;5.80;1.00;;;;;;5067735;28;19908;-84
2024/03/24 00:07:06;;;;;;;;;;;5.80;1.00;;;;;;5067432;28;19916;-83
2024/03/24 00:09:31;;;;;;;;;;;5.70;1.00;;;;;;5061240;28;20419;-83
2024/03/24 00:11:57;;;;;;;;;;;5.70;1.00;;;;;;5067155;28;19920;-83
2024/03/24 00:14:22;;;;;;;;;;;5.70;1.00;;;;;;5066622;28;19948;-82
2024/03/24 00:16:48;;;;;;;;;;;5.70;1.00;;;;;;5090231;22;19916;-82
2024/03/24 00:19:13;;;;;;;;;;;5.70;1.00;;;;;;5076549;28;20398;-84
2024/03/24 00:21:39;;;;;;;;;;;5.70;1.00;;;;;;5079551;28;19935;-83
2024/03/24 00:24:05;;;;;;;;;;;5.70;1.00;;;;;;5078926;28;19908;-83
2024/03/24 00:26:30;;;;;;;;;;;5.60;1.00;;;;;;5078286;28;19950;-84
2024/03/24 00:28:55;;;;;;;;;;;5.60;1.00;;;;;;5072297;28;19920;-84
2024/03/24 00:31:21;;;;;;;;;;;5.60;1.00;;;;;;5075406;28;19918;-83
2024/03/24 00:33:46;;;;;;;;;;;5.60;1.00;;;;;;5075042;28;19935;-83
2024/03/24 00:36:12;;;;;;;;;;;5.50;1.00;;;;;;5075286;28;20399;-83
2024/03/24 00:38:37;;;;;;;;;;;5.50;1.00;;;;;;5074722;28;19931;-84
2024/03/24 00:41:03;;;;;;;;;;;5.50;1.00;;;;;;5072572;28;19909;-83
2024/03/24 00:43:28;;;;;;;;;;;5.40;1.00;;;;;;5072871;28;19963;-84
2024/03/24 00:45:54;;;;;;;;;;;5.40;1.00;;;;;;5074693;28;20337;-84
2024/03/24 00:48:20;;;;;;;;;;;5.40;1.00;;;;;;5076218;28;19920;-84
2024/03/24 00:50:46;;;;;;;;;;;5.40;1.00;;;;;;5074063;28;19916;-84
2024/03/24 00:53:11;;;;;;;;;;;5.40;1.00;;;;;;5075686;28;19912;-84
2024/03/24 00:55:37;;;;;;;;;;;5.30;1.00;;;;;;5075921;28;20003;-84
2024/03/24 00:58:02;;;;;;;;;;;5.30;1.00;;;;;;5078424;28;19912;-84
2024/03/24 01:00:28;;;;;;;;;;;5.30;1.00;;;;;;5077801;28;19931;-84
2024/03/24 01:02:53;;;;;;;;;;;5.30;1.00;;;;;;5078534;28;19939;-84
2024/03/24 01:05:19;;;;;;;;;;;5.30;1.00;;;;;;5078875;28;19955;-84
2024/03/24 01:07:48;;;;;;;;;;;5.30;1.00;;;;;;5077298;28;20426;-85
2024/03/24 01:10:13;;;;;;;;;;;5.30;1.00;;;;;;5079424;28;20408;-84
2024/03/24 01:12:39;;;;;;;;;;;5.30;1.00;;;;;;5076292;28;19951;-83
2024/03/24 01:15:04;;;;;;;;;;;5.30;1.00;;;;;;5074489;28;19950;-84
2024/03/24 01:17:30;;;;;;;;;;;5.30;1.00;;;;;;5075334;28;19923;-83
2024/03/24 01:19:55;;;;;;;;;;;5.30;1.00;;;;;;5074907;28;19912;-84
2024/03/24 01:22:21;;;;;;;;;;;5.40;1.00;;;;;;5075742;28;19923;-84
2024/03/24 01:24:46;;;;;;;;;;;5.40;1.00;;;;;;5074641;28;19912;-84
2024/03/24 01:27:12;;;;;;;;;;;5.40;1.00;;;;;;5075544;28;19913;-84
2024/03/24 01:29:37;;;;;;;;;;;5.40;1.00;;;;;;5074927;28;19962;-85
2024/03/24 01:32:03;;;;;;;;;;;5.40;1.00;;;;;;5073802;28;19912;-83
2024/03/24 01:34:28;;;;;;;;;;;5.40;1.00;;;;;;5073588;28;19909;-83
2024/03/24 01:36:54;;;;;;;;;;;5.40;1.00;;;;;;5074583;28;19909;-84
2024/03/24 01:39:19;;;;;;;;;;;5.50;1.00;;;;;;5073746;28;19954;-84
2024/03/24 01:41:44;;;;;;;;;;;5.50;1.00;;;;;;5072365;28;19912;-83
2024/03/24 01:44:10;;;;;;;;;;;5.50;1.00;;;;;;5074779;28;20022;-84
2024/03/24 01:46:35;;;;;;;;;;;5.60;1.00;;;;;;5073593;28;19958;-83
2024/03/24 01:49:01;;;;;;;;;;;5.60;1.00;;;;;;5074407;28;20027;-83
2024/03/24 01:51:27;;;;;;;;;;;5.60;1.00;;;;;;5074349;28;19913;-82
2024/03/24 01:53:55;;;;;;;;;;;5.60;1.00;;;;;;5073595;28;19909;-83
2024/03/24 01:56:21;;;;;;;;;;;5.70;1.00;;;;;;5074592;28;20014;-82
2024/03/24 01:58:46;;;;;;;;;;;5.70;1.00;;;;;;5076282;28;19912;-85
2024/03/24 02:01:12;;;;;;;;;;;5.70;1.00;;;;;;5078131;28;20560;-84
2024/03/24 02:03:38;;;;;;;;;;;5.70;1.00;;;;;;5078326;28;20003;-82
2024/03/24 02:06:04;;;;;;;;;;;5.70;1.00;;;;;;5078582;28;19934;-83
2024/03/24 02:08:30;;;;;;;;;;;5.70;1.00;;;;;;5078415;28;20381;-84
2024/03/24 02:10:55;;;;;;;;;;;5.70;1.00;;;;;;5090022;28;19959;-84
2024/03/24 02:13:21;;;;;;;;;;;5.70;1.00;;;;;;5069771;28;20330;-83
2024/03/24 02:15:50;;;;;;;;;;;5.80;1.00;;;;;;5077760;28;19925;-84
2024/03/24 02:18:16;;;;;;;;;;;5.80;1.00;;;;;;5076334;28;20007;-84
2024/03/24 02:20:41;;;;;;;;;;;5.80;1.00;;;;;;5077963;28;19951;-83
2024/03/24 02:23:07;;;;;;;;;;;5.80;1.00;;;;;;5077148;28;19920;-84
2024/03/24 02:25:32;;;;;;;;;;;5.80;1.00;;;;;;5076938;28;19909;-83
2024/03/24 02:27:58;;;;;;;;;;;5.90;1.00;;;;;;5075409;28;20428;-82
2024/03/24 02:30:23;;;;;;;;;;;5.90;1.00;;;;;;5077220;28;19913;-83
2024/03/24 02:32:48;;;;;;;;;;;5.90;1.00;;;;;;5078414;28;19909;-84
2024/03/24 02:35:14;;;;;;;;;;;5.90;1.00;;;;;;5078482;28;19908;-84
2024/03/24 02:37:39;;;;;;;;;;;5.90;1.00;;;;;;5078377;28;19909;-83
2024/03/24 02:40:08;;;;;;;;;;;5.90;1.00;;;;;;5078750;28;19908;-81
2024/03/24 02:42:34;;;;;;;;;;;5.90;1.00;;;;;;5075950;28;19915;-85
2024/03/24 02:45:00;;;;;;;;;;;5.90;1.00;;;;;;5074533;28;19913;-85
2024/03/24 02:47:25;;;;;;;;;;;5.90;1.00;;;;;;5075715;28;19916;-86
2024/03/24 02:49:50;;;;;;;;;;;5.90;1.00;;;;;;5076868;28;19919;-85
2024/03/24 02:52:16;;;;;;;;;;;5.80;1.00;;;;;;5076123;28;20411;-85
2024/03/24 02:54:41;;;;;;;;;;;5.80;1.00;;;;;;5075635;28;19908;-85
2024/03/24 02:57:07;;;;;;;;;;;5.80;1.00;;;;;;5077048;28;19962;-84
2024/03/24 02:59:33;;;;;;;;;;;5.70;1.00;;;;;;5076135;28;19960;-84
2024/03/24 03:01:58;;;;;;;;;;;5.70;1.00;;;;;;5074895;28;20410;-84
2024/03/24 03:04:24;;;;;;;;;;;5.60;1.00;;;;;;5073911;28;19913;-85
2024/03/24 03:06:49;;;;;;;;;;;5.60;1.00;;;;;;5074862;28;20370;-83
2024/03/24 03:09:17;;;;;;;;;;;5.60;1.00;;;;;;5075107;28;19912;-84
2024/03/24 03:11:43;;;;;;;;;;;5.60;1.00;;;;;;5075348;28;20392;-85
2024/03/24 03:14:08;;;;;;;;;;;5.50;1.00;;;;;;5077726;28;19935;-84
2024/03/24 03:16:34;;;;;;;;;;;5.50;1.00;;;;;;5077237;28;19908;-85
2024/03/24 03:18:59;;;;;;;;;;;5.50;1.00;;;;;;5077384;28;19947;-84
2024/03/24 03:21:25;;;;;;;;;;;5.50;1.00;;;;;;5076655;28;19923;-86
2024/03/24 03:23:52;;;;;;;;;;;5.50;1.00;;;;;;5077641;28;19916;-85
2024/03/24 03:26:17;;;;;;;;;;;5.40;1.00;;;;;;5079717;28;19913;-85
2024/03/24 03:28:43;;;;;;;;;;;5.40;1.00;;;;;;5077850;28;19958;-85
2024/03/24 03:31:08;;;;;;;;;;;5.40;1.00;;;;;;5080077;28;19915;-85
2024/03/24 03:33:33;;;;;;;;;;;5.40;1.00;;;;;;5078671;28;19967;-83
2024/03/24 03:35:59;;;;;;;;;;;5.50;1.00;;;;;;5078510;28;19913;-85
2024/03/24 03:38:24;;;;;;;;;;;5.40;1.00;;;;;;5080334;28;19955;-85
2024/03/24 03:40:50;;;;;;;;;;;5.50;1.00;;;;;;5076668;28;19922;-86
2024/03/24 03:43:16;;;;;;;;;;;5.40;1.00;;;;;;5080894;28;19965;-85
2024/03/24 03:45:43;;;;;;;;;;;5.50;1.00;;;;;;5080855;28;19909;-85
2024/03/24 03:48:08;;;;;;;;;;;5.50;1.00;;;;;;5080927;28;19999;-85
2024/03/24 03:50:37;;;;;;;;;;;5.50;1.00;;;;;;5079152;28;19955;-86
2024/03/24 03:53:06;;;;;;;;;;;5.50;1.00;;;;;;5080910;28;19932;-85
2024/03/24 03:55:33;;;;;;;;;;;5.50;1.00;;;;;;5077199;28;19943;-86
2024/03/24 03:57:59;;;;;;;;;;;5.50;1.00;;;;;;5076818;28;19920;-86
2024/03/24 04:00:25;;;;;;;;;;;5.50;1.00;;;;;;5080782;28;19915;-86
2024/03/24 04:02:51;;;;;;;;;;;5.60;1.00;;;;;;5082101;28;20281;-86
2024/03/24 04:05:17;;;;;;;;;;;5.60;1.00;;;;;;5081788;28;19980;-86
2024/03/24 04:07:43;;;;;;;;;;;5.60;1.00;;;;;;5081505;28;19947;-84
2024/03/24 04:10:09;;;;;;;;;;;5.60;1.00;;;;;;5082467;28;20007;-86
2024/03/24 04:12:36;;;;;;;;;;;5.60;1.00;;;;;;5077635;28;19951;-85
2024/03/24 04:15:02;;;;;;;;;;;5.60;1.00;;;;;;5075178;28;19920;-85
2024/03/24 04:17:27;;;;;;;;;;;5.60;1.00;;;;;;5074961;28;19931;-85
2024/03/24 04:19:53;;;;;;;;;;;5.60;1.00;;;;;;5075028;28;19963;-84
2024/03/24 04:22:19;;;;;;;;;;;5.60;1.00;;;;;;5073419;28;20042;-84
2024/03/24 04:24:50;;;;;;;;;;;5.60;2.70;;;;;;5074309;28;19913;-84
2024/03/24 04:27:16;;;;;;;;;;;5.60;9.50;;;;;;5074932;28;19912;-85
2024/03/24 04:29:42;;;;;;;;;;;5.60;14.90;;;;;;5076825;28;20341;-84
2024/03/24 04:32:08;;;;;;;;;;;5.60;20.20;;;;;;5077057;28;19908;-85
2024/03/24 04:34:33;;;;;;;;;;;5.50;22.20;;;;;;5077537;28;19916;-84
2024/03/24 04:36:59;;;;;;;;;;;5.50;22.70;;;;;;5075770;28;19962;-84
2024/03/24 04:39:24;;;;;;;;;;;5.50;18.80;;;;;;5075672;28;19968;-85
2024/03/24 04:41:50;;;;;;;;;;;5.50;17.10;;;;;;5075007;28;19915;-84
2024/03/24 04:44:15;;;;;;;;;;;5.50;14.90;;;;;;5076062;28;19959;-85
2024/03/24 04:46:41;;;;;;;;;;;5.50;15.70;;;;;;5076006;28;19912;-84
2024/03/24 04:49:07;;;;;;;;;;;5.60;18.00;;;;;;5074358;28;19919;-85
2024/03/24 04:51:33;;;;;;;;;;;5.60;16.70;;;;;;5074444;28;19916;-84
2024/03/24 04:53:58;;;;;;;;;;;5.60;17.70;;;;;;5089501;28;20282;-85
2024/03/24 04:56:24;;;;;;;;;;;5.60;18.90;;;;;;5075604;28;19908;-84
2024/03/24 04:58:49;;;;;;;;;;;5.60;23.20;;;;;;5074302;28;19908;-85
2024/03/24 05:01:15;;;;;;;;;;;5.60;25.00;;;;;;5072112;28;19938;-85
2024/03/24 05:03:41;;;;;;;;;;;5.60;29.40;;;;;;5074484;28;19912;-85
2024/03/24 05:06:06;;;;;;;;;;;5.60;37.70;;;;;;5075816;28;19918;-84
2024/03/24 05:08:36;;;;;;;;;;;5.60;43.30;;;;;;5075561;28;20011;-85
2024/03/24 05:11:11;;;;;;;;;;;5.60;48.60;;;;;;5074510;28;19914;-85
2024/03/24 05:13:38;;;;;;;;;;;5.60;55.60;;;;;;5075503;28;19915;-85
2024/03/24 05:16:07;;;;;;;;;;;5.60;58.50;;;;;;5075324;28;19969;-85
2024/03/24 05:18:33;;;;;;;;;;;5.70;57.40;;;;;;5072950;28;19953;-83
2024/03/24 05:20:59;;;;;;;;;;;5.70;55.70;;;;;;5075513;28;19916;-85
2024/03/24 05:23:24;;;;;;;;;;;5.70;55.20;;;;;;5075201;28;20375;-83
2024/03/24 05:25:52;;;;;;;;;;;5.70;55.30;;;;;;5075056;28;19919;-85
2024/03/24 05:28:18;;;;;;;;;;;5.70;51.70;;;;;;5073313;28;19936;-85
2024/03/24 05:30:43;;;;;;;;;;;5.80;45.20;;;;;;5072653;28;20368;-85
2024/03/24 05:33:09;;;;;;;;;;;5.80;35.20;;;;;;5072253;28;19934;-85
2024/03/24 05:35:34;;;;;;;;;;;5.90;30.60;;;;;;5072222;28;19966;-85
2024/03/24 05:38:00;;;;;;;;;;;5.90;24.60;;;;;;5066083;28;19991;-85
2024/03/24 05:40:25;;;;;;;;;;;5.90;20.80;;;;;;5073350;28;19915;-85
2024/03/24 05:42:51;;;;;;;;;;;5.90;16.90;;;;;;5073923;28;19988;-85
2024/03/24 05:45:16;;;;;;;;;;;5.90;12.80;;;;;;5076704;28;19916;-85
2024/03/24 05:47:43;;;;;;;;;;;6.00;10.50;;;;;;5076730;28;19912;-85
2024/03/24 05:50:08;;;;;;;;;;;6.00;6.20;;;;;;5076805;28;19924;-85
2024/03/24 05:52:37;;;;;;;;;;;6.00;2.20;;;;;;5076537;28;19953;-85
2024/03/24 05:55:04;;;;;;;;;;;6.10;1.00;;;;;;5073495;28;19912;-83
2024/03/24 05:57:33;;;;;;;;;;;6.10;1.00;;;;;;5075489;28;19909;-85
2024/03/24 05:59:59;;;;;;;;;;;6.30;1.00;;;;;;5077505;28;19909;-84
2024/03/24 06:02:26;;;;;;;;;;;6.40;1.00;;;;;;5077773;28;19949;-84
2024/03/24 06:04:53;;;;;;;;;;;6.60;1.00;;;;;;5076149;28;19917;-85
2024/03/24 06:07:18;;;;;;;;;;;6.90;1.00;;;;;;5077626;28;19908;-85
2024/03/24 06:09:44;;;;;;;;;;;6.90;1.00;;;;;;5074683;28;19912;-85
2024/03/24 06:12:09;;;;;;;;;;;6.90;1.00;;;;;;5077061;28;19909;-85
2024/03/24 06:14:35;;;;;;;;;;;7.10;1.00;;;;;;5077354;28;19912;-85
2024/03/24 06:17:00;;;;;;;;;;;7.40;1.00;;;;;;5076137;28;19908;-85
2024/03/24 06:19:26;;;;;;;;;;;7.60;1.00;;;;;;5092679;22;19925;-83
2024/03/24 06:21:53;;;;;;;;;;;7.90;99.90;;;;;;5065136;28;20381;-87
2024/03/24 06:24:18;;;;;;;;;;;8.60;1.00;;;;;;5065719;28;19909;-83
2024/03/24 06:26:44;;;;;;;;;;;8.40;99.90;;;;;;5061498;28;19913;-81
2024/03/24 06:29:10;;;;;;;;;;;8.00;1.00;;;;;;5062757;28;19951;-82
2024/03/24 06:31:36;;;;;;;;;;;7.80;99.90;;;;;;5065217;28;19915;-82
2024/03/24 06:34:03;;;;;;;;;;;7.60;99.90;;;;;;5065285;28;19916;-82
2024/03/24 06:36:29;;;;;;;;;;;7.40;1.00;;;;;;5065989;28;19908;-83
2024/03/24 06:38:54;;;;;;;;;;;7.20;1.00;;;;;;5065329;28;19909;-83
2024/03/24 06:41:20;;;;;;;;;;;7.00;1.00;;;;;;5068121;28;19909;-83
2024/03/24 06:43:45;;;;;;;;;;;6.90;1.00;;;;;;5067976;28;19916;-83
2024/03/24 06:46:11;;;;;;;;;;;6.80;1.00;;;;;;5066971;28;19909;-82
2024/03/24 06:48:36;;;;;;;;;;;6.80;1.00;;;;;;5069697;28;20015;-82
2024/03/24 06:51:02;;;;;;;;;;;6.90;1.00;;;;;;5071428;28;19909;-82
2024/03/24 06:53:28;;;;;;;;;;;6.90;1.00;;;;;;5066644;28;20382;-81
2024/03/24 06:55:53;;;;;;;;;;;6.80;1.00;;;;;;5062476;28;20362;-81
2024/03/24 06:58:19;;;;;;;;;;;6.80;1.00;;;;;;5062812;28;19909;-82
2024/03/24 07:00:44;;;;;;;;;;;6.70;1.00;;;;;;5062773;28;19905;-82
2024/03/24 07:03:10;;;;;;;;;;;6.60;1.00;;;;;;5060898;28;19917;-82
2024/03/24 07:05:35;;;;;;;;;;;6.60;1.00;;;;;;5067504;28;20432;-82
2024/03/24 07:08:01;;;;;;;;;;;6.60;1.00;;;;;;5064310;28;19913;-82
2024/03/24 07:10:26;;;;;;;;;;;6.60;1.00;;;;;;5061285;28;20387;-82
2024/03/24 07:12:52;;;;;;;;;;;6.60;1.00;;;;;;5061361;28;20294;-81
2024/03/24 07:15:18;;;;;;;;;;;6.60;1.00;;;;;;5061670;28;19955;-82
2024/03/24 07:17:43;;;;;;;;;;;6.50;1.00;;;;;;5061198;28;19927;-82
2024/03/24 07:20:09;;;;;;;;;;;6.50;1.00;;;;;;5059489;28;20510;-81
2024/03/24 07:22:34;;;;;;;;;;;6.50;1.00;;;;;;5062653;28;19932;-83
2024/03/24 07:25:00;;;;;;;;;;;6.60;1.00;;;;;;5069712;28;19919;-82
2024/03/24 07:27:25;;;;;;;;;;;7.40;1.00;;;;;;5068422;28;19913;-82
2024/03/24 07:29:51;;;;;;;;;;;8.20;99.90;;;;;;5060976;28;20008;-82
2024/03/24 07:32:16;;;;;;;;;;;8.50;1.00;;;;;;5066946;28;19900;-81
2024/03/24 07:34:42;;;;;;;;;;;8.90;1.00;;;;;;5066457;28;19952;-85
2024/03/24 07:37:07;;;;;;;;;;;8.70;1.00;;;;;;5063601;28;19991;-81
2024/03/24 07:39:33;;;;;;;;;;;8.40;1.00;;;;;;5069256;28;20271;-81
2024/03/24 07:41:59;;;;;;;;;;;8.20;1.00;;;;;;5068270;28;19912;-85
2024/03/24 07:44:24;;;;;;;;;;;7.90;99.90;;;;;;5064525;28;19909;-84
2024/03/24 07:46:50;;;;;;;;;;;7.80;1.00;;;;;;5073004;28;20012;-83
2024/03/24 07:49:15;;;;;;;;;;;8.10;1.00;;;;;;5064450;28;19913;-83
2024/03/24 07:51:41;;;;;;;;;;;10.50;99.90;;;;;;5065098;28;19909;-85
2024/03/24 07:54:07;;;;;;;;;;;12.90;99.90;;;;;;5062986;28;19972;-84
2024/03/24 07:56:33;;;;;;;;;;;16.30;1.00;;;;;;5061254;28;20386;-83
2024/03/24 07:58:58;;;;;;;;;;;15.20;99.90;;;;;;5064786;28;19909;-84
2024/03/24 08:01:24;;;;;;;;;;;13.80;99.90;;;;;;5070350;28;19912;-84
2024/03/24 08:03:49;;;;;;;;;;;13.50;99.90;;;;;;5057334;28;19939;-85
2024/03/24 08:06:15;;;;;;;;;;;15.60;99.90;;;;;;5068394;28;19913;-83
2024/03/24 08:08:40;;;;;;;;;;;17.20;99.90;;;;;;5064396;28;19913;-84
2024/03/24 08:11:06;;;;;;;;;;;15.80;99.90;;;;;;5064097;28;19942;-85
2024/03/24 08:13:31;;;;;;;;;;;14.30;99.90;;;;;;5062348;28;19916;-81
2024/03/24 08:15:56;;;;;;;;;;;13.10;99.90;;;;;;5063505;28;19970;-84
2024/03/24 08:18:22;;;;;;;;;;;12.30;99.90;;;;;;5059791;28;19913;-83
2024/03/24 08:20:48;;;;;;;;;;;11.70;1.00;;;;;;5057627;28;19919;-83
2024/03/24 08:23:13;;;;;;;;;;;11.50;1.00;;;;;;5057298;28;19928;-82
2024/03/24 08:25:40;;;;;;;;;;;11.10;1.00;;;;;;5064321;28;19954;-82
2024/03/24 08:28:05;;;;;;;;;;;13.30;1.00;;;;;;5060758;28;20379;-83
2024/03/24 08:30:31;;;;;;;;;;;17.10;99.90;;;;;;5056279;28;20051;-83
2024/03/24 08:32:57;;;;;;;;;;;17.40;99.90;;;;;;5057880;28;19913;-85
2024/03/24 08:35:23;;;;;;;;;;;19.90;99.90;;;;;;5056760;28;19920;-83
2024/03/24 08:37:52;;;;;;;;;;;21.40;99.90;;;;;;5065866;28;19920;-85
2024/03/24 08:40:18;;;;;;;;;;;20.10;99.90;;;;;;5056162;28;20295;-82
2024/03/24 08:42:43;;;;;;;;;;;19.70;99.90;;;;;;5054398;28;19939;-83
2024/03/24 08:45:09;;;;;;;;;;;20.70;99.90;;;;;;5058451;28;19952;-83
2024/03/24 08:47:36;;;;;;;;;;;19.90;99.90;;;;;;5059791;28;20288;-83
2024/03/24 08:50:05;;;;;;;;;;;17.70;99.90;;;;;;5061349;28;20252;-83
2024/03/24 08:52:31;;;;;;;;;;;16.70;99.90;;;;;;5057705;28;19913;-82
2024/03/24 08:54:56;;;;;;;;;;;16.10;99.90;;;;;;5060225;28;19912;-84
2024/03/24 08:57:22;;;;;;;;;;;15.70;99.90;;;;;;5060066;28;19916;-83
2024/03/24 08:59:48;;;;;;;;;;;17.00;99.90;;;;;;5055238;28;19949;-83
2024/03/24 09:02:13;;;;;;;;;;;18.50;99.90;;;;;;5060337;28;19913;-84
2024/03/24 09:04:39;;;;;;;;;;;20.70;99.90;;;;;;5060201;28;19943;-85
2024/03/24 09:07:04;;;;;;;;;;;22.80;99.90;;;;;;5061531;28;19933;-84
2024/03/24 09:09:30;;;;;;;;;;;23.60;99.90;;;;;;5069450;28;19935;-84
2024/03/24 09:11:55;;;;;;;;;;;25.10;99.90;;;;;;5061184;28;19973;-84
2024/03/24 09:14:21;;;;;;;;;;;26.40;99.90;;;;;;5060468;28;19955;-84
2024/03/24 09:16:46;;;;;;;;;;;27.70;99.90;;;;;;5061067;28;19916;-84
2024/03/24 09:19:12;;;;;;;;;;;26.80;99.90;;;;;;5059901;28;20021;-84
2024/03/24 09:21:37;;;;;;;;;;;24.90;99.90;;;;;;5058054;28;19951;-84
2024/03/24 09:24:03;;;;;;;;;;;24.90;99.90;;;;;;5058111;28;19909;-83
2024/03/24 09:26:29;;;;;;;;;;;22.90;99.90;;;;;;5064115;28;19919;-84
2024/03/24 09:28:54;;;;;;;;;;;21.50;99.90;;;;;;5067783;28;19913;-82
2024/03/24 09:31:20;;;;;;;;;;;19.60;99.90;;;;;;5059888;28;19920;-86
2024/03/24 09:33:45;;;;;;;;;;;17.70;99.90;;;;;;5059671;28;19920;-83
2024/03/24 09:36:15;;;;;;;;;;;16.40;99.90;;;;;;5059008;28;20003;-83
2024/03/24 09:38:40;;;;;;;;;;;15.40;99.90;;;;;;5066341;28;19935;-82
2024/03/24 09:41:06;;;;;;;;;;;17.60;99.90;;;;;;5062892;28;19917;-82
2024/03/24 09:43:32;;;;;;;;;;;19.00;99.90;;;;;;5064986;28;19909;-84
2024/03/24 09:45:58;;;;;;;;;;;21.40;99.90;;;;;;5071930;28;20408;-84
2024/03/24 09:48:24;;;;;;;;;;;22.80;99.90;;;;;;5055007;28;20372;-83
2024/03/24 09:50:51;;;;;;;;;;;22.00;99.90;;;;;;5053714;28;19919;-83
2024/03/24 09:53:19;;;;;;;;;;;20.60;99.90;;;;;;5053669;28;20359;-82
2024/03/24 09:55:45;;;;;;;;;;;19.00;99.90;;;;;;5053853;28;20410;-82
2024/03/24 09:58:10;;;;;;;;;;;17.80;99.90;;;;;;5052348;28;20039;-85
2024/03/24 10:00:36;;;;;;;;;;;19.00;99.90;;;;;;5052359;28;19934;-83
2024/03/24 10:03:02;;;;;;;;;;;20.40;99.90;;;;;;5057554;28;19913;-84
2024/03/24 10:05:29;;;;;;;;;;;21.00;99.90;;;;;;5054886;28;19989;-84
2024/03/24 10:07:58;;;;;;;;;;;20.20;99.90;;;;;;5059234;28;19924;-84
2024/03/24 10:10:23;;;;;;;;;;;21.10;99.90;;;;;;5073034;28;19920;-83
2024/03/24 10:12:55;;;;;;;;;;;19.90;99.90;;;;;;5058594;28;19946;-84
2024/03/24 10:15:27;;;;;;;;;;;20.10;99.90;;;;;;5059764;28;19913;-83
2024/03/24 10:18:06;;;;;;;;;;;19.60;99.90;;;;;;5063036;28;19968;-84
2024/03/24 10:20:32;;;;;;;;;;;18.60;99.90;;;;;;5068277;28;19917;-84
2024/03/24 10:22:58;;;;;;;;;;;17.40;99.90;;;;;;5062409;28;19972;-82
2024/03/24 10:25:24;;;;;;;;;;;16.40;99.90;;;;;;5062714;28;19909;-81
2024/03/24 10:27:50;;;;;;;;;;;15.60;99.90;;;;;;5046881;28;19921;-82
2024/03/24 10:30:16;;;;;;;;;;;15.00;99.90;;;;;;5057620;28;19916;-83
2024/03/24 10:32:41;;;;;;;;;;;15.10;99.90;;;;;;5067861;28;19999;-81
2024/03/24 10:35:08;;;;;;;;;;;15.30;99.90;;;;;;5062870;28;19916;-82
2024/03/24 10:37:33;;;;;;;;;;;16.50;99.90;;;;;;5068514;28;20354;-83
2024/03/24 10:39:59;;;;;;;;;;;17.40;99.90;;;;;;5063185;28;19923;-82
2024/03/24 10:42:26;;;;;;;;;;;16.80;99.90;;;;;;5067037;28;20279;-84
2024/03/24 10:44:54;;;;;;;;;;;17.10;99.90;;;;;;5055165;28;19913;-83
2024/03/24 10:47:20;;;;;;;;;;;16.90;99.90;;;;;;5063921;28;19909;-82
2024/03/24 10:49:46;;;;;;;;;;;18.20;99.90;;;;;;5066393;28;19919;-83
2024/03/24 10:52:14;;;;;;;;;;;18.50;99.90;;;;;;5066052;28;19916;-84
2024/03/24 10:54:39;;;;;;;;;;;18.50;99.90;;;;;;5065901;28;19939;-82
2024/03/24 10:57:05;;;;;;;;;;;17.40;99.90;;;;;;5066458;28;19976;-84
2024/03/24 10:59:31;;;;;;;;;;;16.20;99.90;;;;;;5065560;28;19908;-82
2024/03/24 11:01:57;;;;;;;;;;;15.10;99.90;;;;;;5061121;28;19919;-83
2024/03/24 11:04:23;;;;;;;;;;;14.30;99.90;;;;;;5065049;28;19959;-82
2024/03/24 11:06:49;;;;;;;;;;;13.60;99.90;;;;;;5063886;28;19913;-83
2024/03/24 11:09:15;;;;;;;;;;;13.10;99.90;;;;;;5060976;28;19917;-82
2024/03/24 11:11:40;;;;;;;;;;;12.70;99.90;;;;;;5060254;28;19936;-83
2024/03/24 11:14:07;;;;;;;;;;;12.60;99.90;;;;;;5062307;28;19909;-83
2024/03/24 11:16:32;;;;;;;;;;;12.70;99.90;;;;;;5062600;28;19917;-83
2024/03/24 11:19:04;;;;;;;;;;;12.90;99.90;;;;;;5060602;28;19923;-82
2024/03/24 11:21:31;;;;;;;;;;;13.30;99.90;;;;;;5061615;28;19959;-84
2024/03/24 11:23:57;;;;;;;;;;;13.40;99.90;;;;;;5062088;28;19913;-83
2024/03/24 11:26:27;;;;;;;;;;;13.40;99.90;;;;;;5059654;28;19913;-82
2024/03/24 11:28:52;;;;;;;;;;;13.20;99.90;;;;;;5064358;28;19917;-83
2024/03/24 11:31:21;;;;;;;;;;;13.00;99.90;;;;;;5063230;28;19909;-84
2024/03/24 11:34:08;;;;;;;;;;;13.00;99.90;;;;;;5055149;28;19920;-81
2024/03/24 11:36:40;;;;;;;;;;;13.20;99.90;;;;;;5059913;28;19912;-82
2024/03/24 11:39:12;;;;;;;;;;;13.30;99.90;;;;;;5060293;28;19913;-82
2024/03/24 11:41:53;;;;;;;;;;;13.30;99.90;;;;;;5061908;28;20282;-82
2024/03/24 11:44:18;;;;;;;;;;;13.30;99.90;;;;;;5067793;28;19921;-83
2024/03/24 11:46:44;;;;;;;;;;;13.30;99.90;;;;;;5045850;28;19913;-83
2024/03/24 11:49:11;;;;;;;;;;;13.20;99.90;;;;;;5062134;28;19924;-83
2024/03/24 11:51:36;;;;;;;;;;;13.40;99.90;;;;;;5059491;28;19919;-83
2024/03/24 11:54:03;;;;;;;;;;;14.60;99.90;;;;;;5056748;28;20367;-82
2024/03/24 11:56:29;;;;;;;;;;;14.60;99.90;;;;;;5054658;28;20453;-82
2024/03/24 11:58:55;;;;;;;;;;;14.10;99.90;;;;;;5043065;28;19913;-81
2024/03/24 12:01:21;;;;;;;;;;;13.60;99.90;;;;;;5043370;28;19935;-81
2024/03/24 12:03:47;;;;;;;;;;;13.10;99.90;;;;;;5042690;28;19913;-83
2024/03/24 12:06:13;;;;;;;;;;;12.60;99.90;;;;;;5041095;28;20375;-82
2024/03/24 12:08:41;;;;;;;;;;;12.40;99.90;;;;;;5046517;28;19920;-82
2024/03/24 12:11:07;;;;;;;;;;;12.30;99.90;;;;;;5040611;28;19999;-84
2024/03/24 12:13:34;;;;;;;;;;;12.30;99.90;;;;;;5047652;28;19991;-82
2024/03/24 12:16:00;;;;;;;;;;;12.50;99.90;;;;;;5040132;28;19920;-81
2024/03/24 12:18:25;;;;;;;;;;;12.60;99.90;;;;;;5041429;28;19912;-82
2024/03/24 12:20:52;;;;;;;;;;;12.60;99.90;;;;;;5070036;22;19935;-84
2024/03/24 12:23:18;;;;;;;;;;;12.50;99.90;;;;;;5051612;28;19923;-85
2024/03/24 12:25:44;;;;;;;;;;;12.30;99.90;;;;;;5052231;28;19913;-85
2024/03/24 12:28:16;;;;;;;;;;;12.20;99.90;;;;;;5052696;28;20011;-85
2024/03/24 12:30:47;;;;;;;;;;;12.00;99.90;;;;;;5055137;28;19935;-84
2024/03/24 12:33:13;;;;;;;;;;;11.90;99.90;;;;;;5051583;28;19917;-83
2024/03/24 12:35:39;;;;;;;;;;;11.80;99.90;;;;;;5050658;28;19913;-85
2024/03/24 12:38:04;;;;;;;;;;;11.60;99.90;;;;;;5050844;28;19913;-83
2024/03/24 12:40:30;;;;;;;;;;;11.60;99.90;;;;;;5053263;28;19913;-83
2024/03/24 12:43:09;;;;;;;;;;;11.70;99.90;;;;;;5052081;28;19917;-83
2024/03/24 12:45:35;;;;;;;;;;;12.00;99.90;;;;;;5051816;28;19913;-84
2024/03/24 12:48:08;;;;;;;;;;;12.10;99.90;;;;;;5049785;28;20268;-83
2024/03/24 12:50:34;;;;;;;;;;;12.30;99.90;;;;;;5047120;28;19913;-84
2024/03/24 12:53:24;;;;;;;;;;;12.30;99.90;;;;;;5072610;28;19919;-84
2024/03/24 12:55:52;;;;;;;;;;;12.20;99.90;;;;;;5052224;28;19920;-85
2024/03/24 12:58:18;;;;;;;;;;;12.50;99.90;;;;;;5050117;28;19909;-84
2024/03/24 13:00:44;;;;;;;;;;;12.90;99.90;;;;;;5051021;28;20018;-83
2024/03/24 13:03:10;;;;;;;;;;;13.10;99.90;;;;;;5051902;28;19955;-84
2024/03/24 13:05:36;;;;;;;;;;;13.40;99.90;;;;;;5054513;28;19921;-86
2024/03/24 13:08:03;;;;;;;;;;;13.70;99.90;;;;;;5067275;28;19917;-85
2024/03/24 13:10:28;;;;;;;;;;;14.30;99.90;;;;;;5051564;28;19920;-86
2024/03/24 13:12:54;;;;;;;;;;;14.70;99.90;;;;;;5052594;28;19912;-86
2024/03/24 13:15:20;;;;;;;;;;;14.90;99.90;;;;;;5056955;28;20412;-86
2024/03/24 13:17:46;;;;;;;;;;;14.50;99.90;;;;;;5049672;28;19924;-85
2024/03/24 13:20:13;;;;;;;;;;;13.60;99.90;;;;;;5050341;28;20444;-86
2024/03/24 13:22:38;;;;;;;;;;;12.90;99.90;;;;;;5053063;28;19966;-86
2024/03/24 13:25:07;;;;;;;;;;;12.70;99.90;;;;;;5052621;28;19909;-85
2024/03/24 13:27:42;;;;;;;;;;;13.00;99.90;;;;;;5054001;28;19973;-84
2024/03/24 13:30:08;;;;;;;;;;;13.20;99.90;;;;;;5056178;28;20074;-84
2024/03/24 13:32:33;;;;;;;;;;;13.20;99.90;;;;;;5048143;28;19967;-85
2024/03/24 13:34:59;;;;;;;;;;;13.10;99.90;;;;;;5051664;28;19970;-86
2024/03/24 13:37:39;;;;;;;;;;;13.10;99.90;;;;;;5052557;28;19925;-85
2024/03/24 13:40:22;;;;;;;;;;;13.10;99.90;;;;;;5045744;28;19913;-86
2024/03/24 13:42:47;;;;;;;;;;;13.10;99.90;;;;;;5043211;28;20367;-86
2024/03/24 13:45:21;;;;;;;;;;;13.00;99.90;;;;;;5048897;28;19917;-86
2024/03/24 13:47:50;;;;;;;;;;;12.80;99.90;;;;;;5047918;28;19923;-85
2024/03/24 13:50:16;;;;;;;;;;;12.70;99.90;;;;;;5051947;28;19913;-85
2024/03/24 13:52:41;;;;;;;;;;;12.50;99.90;;;;;;5054664;28;19919;-84
2024/03/24 13:55:08;;;;;;;;;;;12.40;99.90;;;;;;5054654;28;19999;-84
2024/03/24 13:57:33;;;;;;;;;;;12.20;99.90;;;;;;5053762;28;20422;-85
2024/03/24 13:59:59;;;;;;;;;;;12.20;99.90;;;;;;5055056;28;20015;-84
2024/03/24 14:02:25;;;;;;;;;;;12.20;99.90;;;;;;5060277;28;19913;-83
2024/03/24 14:04:51;;;;;;;;;;;12.30;99.90;;;;;;5054693;28;20460;-86
2024/03/24 14:07:16;;;;;;;;;;;12.10;99.90;;;;;;5053116;28;19970;-86
2024/03/24 14:09:48;;;;;;;;;;;12.00;99.90;;;;;;5057748;28;19978;-85
2024/03/24 14:12:19;;;;;;;;;;;11.90;99.90;;;;;;5072988;28;20371;-85
2024/03/24 14:14:53;;;;;;;;;;;11.80;99.90;;;;;;5059639;28;19916;-86
2024/03/24 14:17:19;;;;;;;;;;;11.70;99.90;;;;;;5052845;28;19913;-86
2024/03/24 14:19:54;;;;;;;;;;;11.50;99.90;;;;;;5054942;28;19913;-85
2024/03/24 14:22:21;;;;;;;;;;;11.40;99.90;;;;;;5056281;28;19956;-86
2024/03/24 14:25:05;;;;;;;;;;;11.50;99.90;;;;;;5071818;28;19913;-84
2024/03/24 14:27:31;;;;;;;;;;;11.50;99.90;;;;;;5053891;28;19970;-84